KFKA

Details ICAO KFKA
Name FILLMORE CO
Region United States
Timezone America/Chicago (UTC-6.0)
Plans Departing 0
Arriving 0
Stats Elevation 1,276 ft / 389 m (AMSL)
Location 43.676631° -92.179886°
Runways 1
Magnetic Variation 0.528° W
Sunrise 2017-12-12 13:34:43 UTC / 2017-12-12 07:34:43 Local
Sunset 2017-12-12 22:33:17 UTC / 2017-12-12 16:33:17 Local
Advertisement - Login to hide

Runways

ID Width Length Bearing (true) Bearing (mag) Surface Threshold Offset Overrun Length
11 75 ft / 23 m 4,001 ft / 1,220 m 107.69° 108.22° Asphalt 0 ft / 0 m 0 ft / 0 m
29 75 ft / 23 m 4,001 ft / 1,220 m 287.70° 288.23° Asphalt 0 ft / 0 m 0 ft / 0 m

Map

Weather


0- 5 10 15 20 25 30 35+ Temperature / ° C

Clouds and Precipitation
Forecast for 2017-12-12 12:00 UTC. Updated 34 minutes ago

Ground ~20,000 ft ~40,000 ft Winds

METAR

KFKA 121135Z AUTO 32007KT 10SM CLR M13/M15 A3017 RMK AO2 T11291148

TAF

Not found

Frequencies

Recorded 118.92 MHz AWOS 3
Approach 119.80 MHz ROCHESTER APP/DEP
Unicom 122.90 MHz CTAF
Warning: Do not use this data for real-world aviation or navigation. No guarantee of current accuracy is given.